Time;durP1;ratioP1;P1;durP2;ratioP2;P2;SDS_P1;SDS_P2;PMS_P1;PMS_P2;Temp;Humidity;BMP_temperature;BMP_pressure;BME280_temperature;BME280_humidity;BME280_pressure;Samples;Min_cycle;Max_cycle;Signal;HPM_P1;HPM_P2
2022/12/11 00:00:39;;;;;;;97.10;46.85;;;-0.30;99.90;;;;;;5008346;28;20046;-73
2022/12/11 00:03:05;;;;;;;100.25;46.80;;;-0.30;99.90;;;;;;5010024;28;20380;-73
2022/12/11 00:05:31;;;;;;;98.97;45.10;;;-0.30;99.90;;;;;;5006625;28;20053;-73
2022/12/11 00:07:57;;;;;;;102.32;49.72;;;-0.20;99.90;;;;;;4992239;28;20057;-73
2022/12/11 00:10:23;;;;;;;113.95;53.38;;;-0.20;99.90;;;;;;4991568;28;20128;-73
2022/12/11 00:12:49;;;;;;;96.95;49.15;;;-0.20;99.90;;;;;;5010295;28;20073;-73
2022/12/11 00:15:15;;;;;;;104.63;52.92;;;-0.20;99.90;;;;;;4991668;28;20511;-73
2022/12/11 00:17:40;;;;;;;106.65;55.53;;;-0.20;99.90;;;;;;4991779;28;20132;-73
2022/12/11 00:20:06;;;;;;;102.30;51.35;;;-0.20;99.90;;;;;;4991924;28;20392;-73
2022/12/11 00:22:32;;;;;;;103.35;48.80;;;-0.10;99.90;;;;;;4992056;28;20558;-73
2022/12/11 00:24:58;;;;;;;94.55;43.92;;;-0.20;99.90;;;;;;4992325;28;20172;-73
2022/12/11 00:27:24;;;;;;;109.32;44.45;;;-0.20;99.90;;;;;;4992015;28;20145;-73
2022/12/11 00:29:50;;;;;;;97.93;46.70;;;-0.20;99.90;;;;;;4990394;28;20132;-73
2022/12/11 00:32:15;;;;;;;92.18;45.70;;;-0.20;99.90;;;;;;4991558;28;20136;-73
2022/12/11 00:34:41;;;;;;;98.68;45.10;;;-0.20;99.90;;;;;;5009248;28;20575;-73
2022/12/11 00:37:07;;;;;;;106.95;46.88;;;-0.10;99.90;;;;;;4991505;28;20471;-73
2022/12/11 00:39:32;;;;;;;98.80;44.03;;;-0.10;99.90;;;;;;4992134;28;20068;-73
2022/12/11 00:41:58;;;;;;;95.38;45.17;;;-0.10;99.90;;;;;;4992299;28;20073;-73
2022/12/11 00:44:24;;;;;;;101.75;44.15;;;-0.10;99.90;;;;;;5008856;28;20053;-73
2022/12/11 00:46:49;;;;;;;93.10;43.75;;;-0.10;99.90;;;;;;4991240;28;20049;-73
2022/12/11 00:49:15;;;;;;;94.32;43.70;;;-0.10;99.90;;;;;;4991162;28;20485;-73
2022/12/11 00:51:41;;;;;;;101.60;43.40;;;-0.10;99.90;;;;;;4990683;28;20042;-73
2022/12/11 00:54:07;;;;;;;93.57;42.30;;;-0.10;99.90;;;;;;4990128;28;20159;-73
2022/12/11 00:56:32;;;;;;;97.85;44.75;;;-0.10;99.90;;;;;;4989921;28;20060;-73
2022/12/11 00:58:58;;;;;;;100.43;43.92;;;-0.10;99.90;;;;;;4990670;28;20403;-73
2022/12/11 01:01:24;;;;;;;110.53;45.88;;;-0.10;99.90;;;;;;5008070;28;20044;-73
2022/12/11 01:03:51;;;;;;;104.72;43.50;;;0.00;99.90;;;;;;4988448;28;20423;-73
2022/12/11 01:06:23;;;;;;;92.85;41.42;;;-0.10;99.90;;;;;;4987308;28;20492;-73
2022/12/11 01:10:22;;;;;;;86.32;38.83;;;-0.10;99.90;;;;;;4990659;28;20046;-73
2022/12/11 01:11:35;;;;;;;87.00;39.60;;;-0.10;99.90;;;;;;4990093;28;20080;-73
2022/12/11 01:14:01;;;;;;;82.68;36.83;;;-0.10;99.90;;;;;;4989645;28;20073;-73
2022/12/11 01:16:27;;;;;;;88.88;37.47;;;-0.10;99.90;;;;;;4990362;28;20088;-73
2022/12/11 01:18:52;;;;;;;73.80;35.05;;;-0.10;99.90;;;;;;4990984;28;20491;-73
2022/12/11 01:21:18;;;;;;;82.45;37.85;;;0.00;99.90;;;;;;4989487;28;20046;-73
2022/12/11 01:23:43;;;;;;;92.05;39.65;;;-0.10;99.90;;;;;;4990430;28;20054;-73
2022/12/11 01:26:12;;;;;;;83.30;37.15;;;0.00;99.90;;;;;;4990104;28;20077;-73
2022/12/11 01:28:38;;;;;;;;;;;0.00;99.90;;;;;;5008482;28;20045;-72
2022/12/11 01:31:15;;;;;;;100.53;39.67;;;-0.10;99.90;;;;;;4988195;28;19927;-72
2022/12/11 01:33:41;;;;;;;32.42;7.38;;;0.00;99.90;;;;;;4989990;28;20057;-73
2022/12/11 01:36:13;;;;;;;97.85;40.80;;;-0.10;99.90;;;;;;4988248;28;20045;-73
2022/12/11 01:38:39;;;;;;;81.30;36.60;;;-0.10;99.90;;;;;;5004975;28;20104;-72
2022/12/11 01:41:06;;;;;;;92.45;38.20;;;0.00;99.90;;;;;;4989254;28;20866;-73
2022/12/11 01:43:31;;;;;;;94.85;40.35;;;0.00;99.90;;;;;;4987279;28;20045;-73
2022/12/11 01:45:57;;;;;;;89.68;38.60;;;0.00;99.90;;;;;;4987563;28;20052;-72
2022/12/11 01:48:27;;;;;;;77.10;35.78;;;0.00;99.90;;;;;;4988694;28;20125;-72
2022/12/11 01:50:57;;;;;;;100.43;38.15;;;0.00;99.90;;;;;;4989949;28;20096;-72
2022/12/11 01:53:36;;;;;;;82.68;37.40;;;0.00;99.90;;;;;;5004651;28;20521;-72
2022/12/11 01:56:04;;;;;;;93.32;38.58;;;0.00;99.90;;;;;;4988362;28;20054;-73
2022/12/11 01:58:33;;;;;;;94.65;37.63;;;0.10;99.90;;;;;;4989960;28;20054;-73
2022/12/11 02:01:01;;;;;;;83.97;35.67;;;0.10;99.90;;;;;;4989451;28;20042;-73
2022/12/11 02:03:26;;;;;;;86.85;38.53;;;0.10;99.90;;;;;;4986864;28;20149;-72
2022/12/11 02:05:52;;;;;;;91.22;39.58;;;0.10;99.90;;;;;;4989566;28;20125;-72
2022/12/11 02:08:20;;;;;;;83.93;36.42;;;0.10;99.90;;;;;;4989492;28;20045;-73
2022/12/11 02:10:56;;;;;;;88.03;39.47;;;0.10;99.90;;;;;;4987630;28;20535;-73
2022/12/11 02:13:53;;;;;;;93.28;38.90;;;0.10;99.90;;;;;;4987069;28;20085;-73
2022/12/11 02:16:45;;;;;;;85.70;37.70;;;0.10;99.90;;;;;;5006124;28;20387;-73
2022/12/11 02:19:45;;;;;;;27.27;8.00;;;0.10;99.90;;;;;;4994485;28;20080;-73
2022/12/11 02:22:21;;;;;;;82.68;35.38;;;0.10;99.90;;;;;;4989973;28;20085;-73
2022/12/11 02:24:59;;;;;;;85.15;36.80;;;0.10;99.90;;;;;;4988476;28;20719;-73
2022/12/11 02:27:56;;;;;;;92.68;38.20;;;0.10;99.90;;;;;;4987833;28;20073;-73
2022/12/11 02:30:22;;;;;;;90.82;37.75;;;0.20;99.90;;;;;;5004453;28;20042;-73
2022/12/11 02:32:55;;;;;;;82.10;38.03;;;0.20;99.90;;;;;;4989156;28;20045;-72
2022/12/11 02:35:30;;;;;;;88.68;38.72;;;0.20;99.90;;;;;;5001717;28;20069;-72
2022/12/11 02:38:07;;;;;;;29.50;11.10;;;0.20;99.90;;;;;;5004083;28;20050;-73
2022/12/11 02:40:35;;;;;;;30.98;12.55;;;0.20;99.90;;;;;;4989615;28;20053;-73
2022/12/11 02:43:05;;;;;;;88.40;38.22;;;0.10;99.90;;;;;;5005830;28;20042;-72
2022/12/11 02:45:33;;;;;;;95.68;38.53;;;0.10;99.90;;;;;;4970250;28;20121;-72
2022/12/11 02:48:02;;;;;;;78.32;37.47;;;0.20;99.90;;;;;;5006552;28;20054;-72
2022/12/11 02:50:29;;;;;;;93.90;40.00;;;0.20;99.90;;;;;;4987809;28;20070;-72
2022/12/11 02:52:57;;;;;;;102.85;41.83;;;0.20;99.90;;;;;;5003973;28;20050;-72
2022/12/11 02:55:24;;;;;;;96.47;38.83;;;0.20;99.90;;;;;;5006847;28;20046;-72
2022/12/11 02:58:16;;;;;;;29.75;13.55;;;0.20;99.90;;;;;;4973102;28;20482;-73
2022/12/11 03:00:45;;;;;;;84.25;37.20;;;0.20;99.90;;;;;;4979956;28;20527;-72
2022/12/11 03:03:12;;;;;;;94.07;40.67;;;0.20;99.90;;;;;;4987595;28;20084;-73
2022/12/11 03:05:38;;;;;;;36.15;10.93;;;0.30;99.90;;;;;;4988115;28;20570;-72
2022/12/11 03:08:04;;;;;;;92.65;40.85;;;0.20;99.90;;;;;;4987655;28;20202;-72
2022/12/11 03:10:30;;;;;;;96.38;38.55;;;0.20;99.90;;;;;;4989031;28;20042;-73
2022/12/11 03:12:57;;;;;;;22.75;8.15;;;0.20;99.90;;;;;;4989143;28;20042;-72
2022/12/11 03:15:40;;;;;;;103.33;39.83;;;0.20;99.90;;;;;;4988720;28;20100;-72
2022/12/11 03:18:22;;;;;;;92.13;37.08;;;0.30;99.90;;;;;;4992493;28;20443;-73
2022/12/11 03:20:59;;;;;;;83.82;37.13;;;0.30;99.90;;;;;;4989444;28;20140;-72
2022/12/11 03:23:42;;;;;;;98.80;38.78;;;0.30;99.90;;;;;;5004741;28;20053;-72
2022/12/11 03:26:12;;;;;;;91.30;40.38;;;0.30;99.90;;;;;;5006569;28;20489;-72
2022/12/11 03:28:47;;;;;;;81.75;36.85;;;0.30;99.90;;;;;;4992424;28;20076;-72
2022/12/11 03:31:34;;;;;;;87.72;37.88;;;0.30;99.90;;;;;;4992388;28;20507;-73
2022/12/11 03:34:02;;;;;;;93.05;37.03;;;0.30;99.90;;;;;;4988530;28;20145;-72
2022/12/11 03:36:33;;;;;;;97.93;39.10;;;0.30;99.90;;;;;;4991746;28;20076;-72
2022/12/11 03:39:04;;;;;;;97.10;41.28;;;0.30;99.90;;;;;;5009974;28;20159;-72
2022/12/11 03:41:32;;;;;;;92.18;37.67;;;0.30;99.90;;;;;;5004563;28;20092;-72
2022/12/11 03:43:58;;;;;;;89.70;38.45;;;0.30;99.90;;;;;;4991259;28;20069;-72
2022/12/11 03:46:30;;;;;;;27.63;9.00;;;0.30;99.90;;;;;;4992506;28;20494;-72
2022/12/11 03:49:02;;;;;;;85.90;37.35;;;0.30;99.90;;;;;;4989771;28;20042;-72
2022/12/11 03:51:31;;;;;;;78.53;37.45;;;0.30;99.90;;;;;;4990967;28;20064;-72
2022/12/11 03:53:57;;;;;;;82.03;36.90;;;0.40;99.90;;;;;;4992372;28;20052;-72
2022/12/11 03:56:25;;;;;;;100.20;37.55;;;0.40;99.90;;;;;;4991632;28;20096;-72
2022/12/11 03:58:51;;;;;;;103.25;39.78;;;0.40;99.90;;;;;;4992605;28;20092;-72
2022/12/11 04:01:16;;;;;;;83.03;37.40;;;0.40;99.90;;;;;;4990502;28;20049;-73
2022/12/11 04:03:42;;;;;;;92.00;41.22;;;0.40;99.90;;;;;;4990997;28;20085;-72
2022/12/11 04:06:08;;;;;;;88.10;36.97;;;0.40;99.90;;;;;;4989643;28;20460;-72
2022/12/11 04:08:33;;;;;;;97.70;40.90;;;0.40;99.90;;;;;;4991381;28;20053;-72
2022/12/11 04:15:00;;;;;;;94.18;38.40;;;0.40;99.90;;;;;;4989622;28;20057;-72
2022/12/11 04:16:31;;;;;;;90.80;39.45;;;0.40;99.90;;;;;;4986035;28;20555;-72
2022/12/11 04:24:25;;;;;;;85.60;40.00;;;0.40;99.90;;;;;;4990144;28;20046;-73
2022/12/11 04:26:51;;;;;;;35.50;12.52;;;0.40;99.90;;;;;;4990311;28;20052;-72
2022/12/11 04:29:16;;;;;;;97.15;40.28;;;0.40;99.90;;;;;;4991036;28;20050;-72
2022/12/11 04:31:42;;;;;;;101.88;40.90;;;0.40;99.90;;;;;;4990600;28;20125;-72
2022/12/11 04:34:08;;;;;;;94.00;38.78;;;0.40;99.90;;;;;;4991203;28;20046;-72
2022/12/11 04:36:33;;;;;;;90.25;40.75;;;0.40;99.90;;;;;;4991168;28;20076;-72
2022/12/11 04:38:59;;;;;;;103.43;42.45;;;0.40;99.90;;;;;;4989976;28;20045;-72
2022/12/11 04:41:25;;;;;;;103.20;40.05;;;0.40;99.90;;;;;;4991596;28;20054;-72
2022/12/11 04:43:50;;;;;;;96.13;40.50;;;0.40;99.90;;;;;;5009610;28;20113;-72
2022/12/11 04:46:19;;;;;;;102.10;42.45;;;0.40;99.90;;;;;;5008710;28;20042;-72
2022/12/11 04:48:46;;;;;;;102.07;41.40;;;0.40;99.90;;;;;;4991026;28;20080;-72
2022/12/11 04:51:12;;;;;;;35.72;12.35;;;0.50;99.90;;;;;;5008909;28;20553;-72
2022/12/11 04:53:38;;;;;;;110.80;43.67;;;0.40;99.90;;;;;;5008411;28;20045;-72
2022/12/11 04:56:06;;;;;;;92.20;39.33;;;0.40;99.90;;;;;;4991672;28;20050;-72
2022/12/11 04:58:32;;;;;;;90.53;40.33;;;0.50;99.90;;;;;;5009289;28;20131;-72
2022/12/11 05:00:58;;;;;;;114.95;43.42;;;0.40;99.90;;;;;;4991456;28;20077;-72
2022/12/11 05:03:23;;;;;;;97.70;40.22;;;0.50;99.90;;;;;;4991300;28;20054;-72
2022/12/11 05:05:52;;;;;;;95.38;42.38;;;0.50;99.90;;;;;;4991137;28;20759;-72
2022/12/11 05:08:19;;;;;;;95.95;40.38;;;0.50;99.90;;;;;;5002626;28;20711;-72
2022/12/11 05:10:53;;;;;;;113.65;48.53;;;0.50;99.90;;;;;;5004503;28;20060;-72
2022/12/11 05:13:19;;;;;;;103.05;42.33;;;0.40;99.90;;;;;;5005749;28;20347;-72
2022/12/11 05:15:44;;;;;;;101.75;43.72;;;0.50;99.90;;;;;;5007838;28;20056;-72
2022/12/11 05:18:10;;;;;;;107.22;44.28;;;0.50;99.90;;;;;;5007755;28;20511;-72
2022/12/11 05:20:36;;;;;;;114.38;44.13;;;0.50;99.90;;;;;;5007598;28;20037;-72
2022/12/11 05:23:01;;;;;;;111.53;41.85;;;0.50;99.90;;;;;;5006473;28;20734;-72
2022/12/11 05:25:27;;;;;;;102.78;40.20;;;0.50;99.90;;;;;;5008008;28;20053;-72
2022/12/11 05:27:52;;;;;;;105.70;41.30;;;0.50;99.90;;;;;;5007045;28;20052;-72
2022/12/11 05:30:18;;;;;;;94.60;39.50;;;0.50;99.90;;;;;;5007925;28;20042;-72
2022/12/11 05:32:44;;;;;;;97.93;41.72;;;0.50;99.90;;;;;;5007168;28;20518;-72
2022/12/11 05:35:09;;;;;;;89.32;41.30;;;0.50;99.90;;;;;;5004454;28;20050;-72
2022/12/11 05:37:36;;;;;;;93.63;41.95;;;0.50;99.90;;;;;;4989191;28;20501;-72
2022/12/11 05:40:05;;;;;;;91.30;40.88;;;0.50;99.90;;;;;;4988762;28;20038;-72
2022/12/11 05:42:31;;;;;;;109.15;41.17;;;0.50;99.90;;;;;;4989249;28;20054;-73
2022/12/11 05:44:57;;;;;;;94.35;40.85;;;0.50;99.90;;;;;;4990034;28;20085;-72
2022/12/11 05:47:23;;;;;;;100.05;39.75;;;0.50;99.90;;;;;;5007316;28;20069;-72
2022/12/11 05:49:48;;;;;;;96.28;39.10;;;0.50;99.90;;;;;;5007253;28;20427;-71
2022/12/11 05:52:15;;;;;;;90.95;39.35;;;0.50;99.90;;;;;;5007092;28;20080;-72
2022/12/11 05:54:41;;;;;;;94.65;40.22;;;0.50;99.90;;;;;;5006950;28;20498;-72
2022/12/11 05:57:07;;;;;;;110.65;40.90;;;0.50;99.90;;;;;;4986327;28;20136;-73
2022/12/11 05:59:33;;;;;;;84.63;39.13;;;0.50;99.90;;;;;;4988283;28;20042;-73
2022/12/11 06:01:58;;;;;;;97.88;40.33;;;0.50;99.90;;;;;;4989837;28;20115;-73
2022/12/11 06:04:24;;;;;;;87.65;38.33;;;0.50;99.90;;;;;;4986805;28;20137;-72
2022/12/11 06:06:53;;;;;;;99.47;37.42;;;0.50;99.90;;;;;;4982247;28;20117;-72
2022/12/11 06:09:18;;;;;;;99.90;41.38;;;0.50;99.90;;;;;;4987762;28;20058;-72
2022/12/11 06:11:44;;;;;;;32.90;15.00;;;0.50;99.90;;;;;;4987105;28;20463;-71
2022/12/11 06:14:10;;;;;;;94.90;39.25;;;0.50;99.90;;;;;;4987222;28;20042;-72
2022/12/11 06:16:36;;;;;;;109.63;41.83;;;0.50;99.90;;;;;;5002939;28;20089;-72
2022/12/11 06:19:02;;;;;;;98.18;40.13;;;0.50;99.90;;;;;;4986880;28;20084;-72
2022/12/11 06:21:30;;;;;;;93.07;38.22;;;0.50;99.90;;;;;;4985427;28;20434;-72
2022/12/11 06:23:59;;;;;;;94.95;38.08;;;0.50;99.90;;;;;;4985227;28;20056;-71
2022/12/11 06:26:25;;;;;;;81.25;37.78;;;0.50;99.90;;;;;;4986717;28;20493;-71
2022/12/11 06:28:51;;;;;;;87.82;39.17;;;0.50;99.90;;;;;;4986094;28;20471;-72
2022/12/11 06:31:17;;;;;;;86.25;37.60;;;0.50;99.90;;;;;;4985723;28;20073;-71
2022/12/11 06:33:43;;;;;;;90.40;39.90;;;0.50;99.90;;;;;;4987071;28;20046;-72
2022/12/11 06:36:18;;;;;;;97.97;40.10;;;0.60;99.90;;;;;;5001914;28;20591;-72
2022/12/11 06:38:44;;;;;;;92.80;38.58;;;0.60;99.90;;;;;;4984072;28;20054;-72
2022/12/11 06:41:10;;;;;;;93.63;39.10;;;0.60;99.90;;;;;;4986774;28;20061;-71
2022/12/11 06:43:38;;;;;;;90.78;37.88;;;0.60;99.90;;;;;;4984960;28;20097;-72
2022/12/11 06:46:16;;;;;;;94.43;37.55;;;0.60;99.90;;;;;;4984839;28;20049;-71
2022/12/11 06:48:45;;;;;;;94.30;37.25;;;0.60;99.90;;;;;;4981465;28;20050;-72
2022/12/11 06:51:14;;;;;;;77.30;35.35;;;0.50;99.90;;;;;;4986540;28;20043;-71
2022/12/11 06:53:41;;;;;;;89.53;37.33;;;0.60;99.90;;;;;;5004432;28;20117;-71
2022/12/11 06:56:10;;;;;;;85.05;37.53;;;0.60;99.90;;;;;;4989771;28;20389;-72
2022/12/11 06:58:37;;;;;;;92.85;38.13;;;0.60;99.90;;;;;;4987294;28;20058;-72
2022/12/11 07:01:04;;;;;;;29.17;13.48;;;0.50;99.90;;;;;;4988644;28;20096;-71
2022/12/11 07:03:30;;;;;;;79.97;35.05;;;0.50;99.90;;;;;;4992495;28;20064;-72
2022/12/11 07:06:01;;;;;;;92.00;36.92;;;0.50;99.90;;;;;;4992558;28;20057;-71
2022/12/11 07:08:28;;;;;;;94.15;36.22;;;0.50;99.90;;;;;;4989481;28;20133;-71
2022/12/11 07:10:54;;;;;;;85.07;36.38;;;0.50;99.90;;;;;;4992727;28;20049;-72
2022/12/11 07:13:19;;;;;;;86.28;37.40;;;0.50;99.90;;;;;;5007719;28;20034;-72
2022/12/11 07:15:45;;;;;;;85.00;35.92;;;0.50;99.90;;;;;;4993556;28;20507;-72
2022/12/11 07:18:11;;;;;;;94.07;39.78;;;0.50;99.90;;;;;;4991847;28;20128;-71
2022/12/11 07:20:36;;;;;;;87.40;35.92;;;0.60;99.90;;;;;;4992553;28;20045;-72
2022/12/11 07:23:02;;;;;;;84.68;37.55;;;0.60;99.90;;;;;;4993801;28;20108;-72
2022/12/11 07:25:28;;;;;;;83.38;36.85;;;0.50;99.90;;;;;;5010514;28;20053;-71
2022/12/11 07:27:53;;;;;;;99.38;38.25;;;0.60;99.90;;;;;;4992624;28;20825;-72
2022/12/11 07:30:19;;;;;;;93.90;38.25;;;0.60;99.90;;;;;;4991981;28;20180;-72
2022/12/11 07:32:45;;;;;;;99.38;38.20;;;0.60;99.90;;;;;;5010775;28;20054;-71
2022/12/11 07:35:10;;;;;;;91.80;39.22;;;0.60;99.90;;;;;;4993707;28;20156;-71
2022/12/11 07:37:39;;;;;;;97.30;39.55;;;0.60;99.90;;;;;;5008035;28;20049;-71
2022/12/11 07:40:05;;;;;;;;;;;0.60;99.90;;;;;;4991004;28;20066;-71
2022/12/11 07:42:30;;;;;;;89.07;38.38;;;0.60;99.90;;;;;;4992058;28;20263;-71
2022/12/11 07:44:56;;;;;;;93.28;40.97;;;0.50;99.90;;;;;;4992115;28;20060;-72
2022/12/11 07:47:22;;;;;;;91.50;37.75;;;0.50;99.90;;;;;;4991637;28;20046;-71
2022/12/11 07:49:47;;;;;;;92.25;37.47;;;0.60;99.90;;;;;;5009485;28;20069;-72
2022/12/11 07:52:14;;;;;;;34.00;15.20;;;0.60;99.90;;;;;;4991097;28;20152;-71
2022/12/11 07:54:39;;;;;;;91.57;39.45;;;0.50;99.90;;;;;;5008913;28;20107;-72
2022/12/11 07:57:05;;;;;;;91.13;37.85;;;0.50;99.90;;;;;;5010539;28;20462;-72
2022/12/11 07:59:31;;;;;;;106.32;43.25;;;0.60;99.90;;;;;;4991442;28;20038;-72
2022/12/11 08:01:56;;;;;;;97.65;38.30;;;0.60;99.90;;;;;;5009245;28;20057;-72
2022/12/11 08:04:22;;;;;;;102.40;39.55;;;0.60;99.90;;;;;;4990893;28;20061;-72
2022/12/11 08:06:48;;;;;;;108.80;38.33;;;0.60;99.90;;;;;;5008611;28;20558;-72
2022/12/11 08:09:13;;;;;;;110.45;43.53;;;0.60;99.90;;;;;;4991169;28;20788;-72
2022/12/11 08:11:39;;;;;;;108.60;41.22;;;0.60;99.90;;;;;;5007542;28;20054;-72
2022/12/11 08:14:06;;;;;;;97.22;39.08;;;0.60;99.90;;;;;;4988771;28;20079;-71
2022/12/11 08:16:32;;;;;;;98.95;39.05;;;0.60;99.90;;;;;;4989708;28;20139;-72
2022/12/11 08:18:59;;;;;;;117.57;43.75;;;0.60;99.90;;;;;;4990034;28;20120;-71
2022/12/11 08:21:26;;;;;;;94.00;39.30;;;0.60;99.90;;;;;;4991647;28;20045;-71
2022/12/11 08:23:53;;;;;;;97.32;40.65;;;0.60;99.90;;;;;;4990061;28;20056;-71
2022/12/11 08:26:27;;;;;;;103.93;42.95;;;0.60;99.90;;;;;;5008436;28;20052;-71
2022/12/11 08:28:53;;;;;;;96.43;39.35;;;0.60;99.90;;;;;;5005905;28;20053;-71
2022/12/11 08:31:19;;;;;;;47.83;17.55;;;0.60;99.90;;;;;;5005567;28;20046;-72
2022/12/11 08:33:45;;;;;;;103.95;42.42;;;0.60;99.90;;;;;;4990683;28;20478;-72
2022/12/11 08:36:13;;;;;;;97.13;41.40;;;0.60;99.90;;;;;;5007332;28;20034;-72
2022/12/11 08:38:39;;;;;;;98.32;41.50;;;0.60;99.90;;;;;;5007029;28;20721;-72
2022/12/11 08:41:10;;;;;;;116.00;45.33;;;0.60;99.90;;;;;;5006281;28;20068;-72
2022/12/11 08:43:36;;;;;;;115.93;52.80;;;0.60;99.90;;;;;;5004411;28;20127;-72
2022/12/11 08:46:02;;;;;;;54.17;24.20;;;0.60;99.90;;;;;;5008660;28;20096;-72
2022/12/11 08:48:28;;;;;;;149.57;64.00;;;0.50;99.90;;;;;;4990866;28;20050;-72
2022/12/11 08:50:53;;;;;;;132.25;55.50;;;0.50;99.90;;;;;;4990616;28;20057;-72
2022/12/11 08:53:19;;;;;;;106.00;48.95;;;0.60;99.90;;;;;;5008232;28;20084;-72
2022/12/11 08:55:45;;;;;;;38.00;16.33;;;0.60;99.90;;;;;;5007664;28;20546;-71
2022/12/11 08:58:10;;;;;;;124.63;50.03;;;0.60;99.90;;;;;;5001506;28;20129;-72
2022/12/11 09:00:36;;;;;;;127.43;54.47;;;0.50;99.90;;;;;;5005347;28;20121;-72
2022/12/11 09:03:02;;;;;;;118.90;48.42;;;0.60;99.90;;;;;;5003121;28;20095;-71
2022/12/11 09:05:28;;;;;;;129.48;50.20;;;0.60;99.90;;;;;;4989398;28;20062;-70
2022/12/11 09:07:53;;;;;;;129.68;59.88;;;0.60;99.90;;;;;;4990258;28;20925;-72
2022/12/11 09:10:19;;;;;;;106.95;48.17;;;0.60;99.90;;;;;;5004238;28;20108;-71
2022/12/11 09:12:45;;;;;;;116.00;50.15;;;0.60;99.90;;;;;;5008188;28;20052;-71
2022/12/11 09:15:10;;;;;;;43.80;21.15;;;0.60;99.90;;;;;;5005298;28;20116;-71
2022/12/11 09:17:36;;;;;;;109.05;45.47;;;0.60;99.90;;;;;;5006222;28;20124;-72
2022/12/11 09:20:03;;;;;;;115.55;48.88;;;0.60;99.90;;;;;;5007709;28;20037;-71
2022/12/11 09:22:32;;;;;;;124.28;46.92;;;0.60;99.90;;;;;;5004733;28;21183;-70
2022/12/11 09:24:58;;;;;;;128.32;67.68;;;0.60;99.90;;;;;;5003033;28;20073;-71
2022/12/11 09:27:24;;;;;;;63.22;27.67;;;0.70;99.90;;;;;;5002515;28;20484;-72
2022/12/11 09:29:50;;;;;;;117.13;52.10;;;0.70;99.90;;;;;;5001995;28;20065;-71
2022/12/11 09:32:16;;;;;;;111.30;47.22;;;0.70;99.90;;;;;;5003550;28;20030;-72
2022/12/11 09:34:42;;;;;;;107.10;45.50;;;0.70;99.90;;;;;;5004689;28;20411;-71
2022/12/11 09:37:08;;;;;;;108.28;46.60;;;0.70;99.90;;;;;;5007156;28;20045;-71
2022/12/11 09:39:34;;;;;;;92.93;42.15;;;0.70;99.90;;;;;;5004037;28;20038;-71
2022/12/11 09:42:14;;;;;;;102.18;45.13;;;0.70;99.90;;;;;;4989387;28;20060;-71
2022/12/11 09:44:57;;;;;;;100.05;41.22;;;0.80;99.90;;;;;;5006927;28;20046;-71
2022/12/11 09:47:35;;;;;;;128.32;52.65;;;0.70;99.90;;;;;;5004216;28;20179;-71
2022/12/11 09:50:25;;;;;;;106.75;48.28;;;0.70;99.90;;;;;;5006453;28;20495;-71
2022/12/11 09:53:10;;;;;;;115.18;50.40;;;0.70;99.90;;;;;;4997209;28;20868;-71
2022/12/11 09:55:59;;;;;;;95.88;48.13;;;0.70;99.90;;;;;;5002148;28;20583;-72
2022/12/11 09:58:28;;;;;;;;;;;0.70;99.90;;;;;;4989901;28;20061;-72
2022/12/11 10:00:57;;;;;;;113.43;48.80;;;0.70;99.90;;;;;;4987066;28;19935;-72
2022/12/11 10:03:29;;;;;;;;;;;0.70;99.90;;;;;;5001357;28;20050;-72
2022/12/11 10:06:06;;;;;;;110.65;49.22;;;0.70;99.90;;;;;;5003434;28;20732;-73
2022/12/11 10:08:43;;;;;;;122.53;56.00;;;0.70;99.90;;;;;;5002998;28;20049;-72
2022/12/11 10:11:46;;;;;;;115.53;50.65;;;0.70;99.90;;;;;;4986117;28;20049;-72
2022/12/11 10:14:28;;;;;;;124.97;54.72;;;0.80;99.90;;;;;;5005819;28;20058;-72
2022/12/11 10:17:04;;;;;;;107.20;51.00;;;0.70;99.90;;;;;;4971156;28;20128;-73
2022/12/11 10:19:31;;;;;;;112.90;48.20;;;0.80;99.90;;;;;;4982591;28;20046;-73
2022/12/11 10:21:59;;;;;;;119.50;49.35;;;0.80;99.90;;;;;;4971829;28;20056;-72
2022/12/11 10:24:59;;;;;;;123.32;60.40;;;0.80;99.90;;;;;;5001639;28;20373;-73
2022/12/11 10:27:30;;;;;;;111.25;51.53;;;0.80;99.90;;;;;;4982900;28;20041;-72
2022/12/11 10:30:18;;;;;;;59.60;24.05;;;0.80;99.90;;;;;;4986872;28;20112;-72
2022/12/11 10:32:44;;;;;;;;;;;0.70;99.90;;;;;;4988296;28;20099;-73
2022/12/11 10:35:18;;;;;;;102.38;46.15;;;0.80;99.90;;;;;;5004675;28;19929;-73
2022/12/11 10:37:44;;;;;;;101.47;43.97;;;0.80;99.90;;;;;;5003566;28;20084;-73
2022/12/11 10:40:11;;;;;;;49.60;21.63;;;0.80;99.90;;;;;;4989416;28;20042;-74
2022/12/11 10:42:37;;;;;;;48.15;22.98;;;0.80;99.90;;;;;;4986176;28;20190;-76
2022/12/11 10:45:04;;;;;;;102.38;49.00;;;0.80;99.90;;;;;;4988001;28;20068;-77
2022/12/11 10:47:32;;;;;;;112.55;46.90;;;0.80;99.90;;;;;;4988297;28;20049;-76
2022/12/11 10:50:00;;;;;;;102.15;46.95;;;0.80;99.90;;;;;;4987777;28;20491;-75
2022/12/11 10:52:41;;;;;;;107.63;52.67;;;0.80;99.90;;;;;;4985960;28;20157;-74
2022/12/11 10:55:18;;;;;;;115.22;54.05;;;0.80;99.90;;;;;;4988479;28;20121;-75
2022/12/11 10:57:52;;;;;;;121.72;51.47;;;0.90;99.90;;;;;;5005465;28;20054;-75
2022/12/11 11:00:39;;;;;;;38.47;16.02;;;0.90;99.90;;;;;;4988089;28;20073;-75
2022/12/11 11:03:19;;;;;;;106.13;45.13;;;0.80;99.90;;;;;;4986675;28;20084;-74
2022/12/11 11:05:45;;;;;;;116.75;48.17;;;0.80;99.90;;;;;;4987464;28;20585;-76
2022/12/11 11:08:20;;;;;;;103.47;48.35;;;0.90;99.90;;;;;;4987431;28;20046;-76
2022/12/11 11:10:54;;;;;;;111.80;50.78;;;0.90;99.90;;;;;;4987266;28;20054;-76
2022/12/11 11:13:25;;;;;;;48.22;20.65;;;0.90;99.90;;;;;;4985687;28;20033;-75
2022/12/11 11:16:06;;;;;;;103.18;46.17;;;0.90;99.90;;;;;;5002622;28;20510;-75
2022/12/11 11:18:33;;;;;;;105.97;48.03;;;0.90;99.90;;;;;;4988307;28;20133;-76
2022/12/11 11:21:00;;;;;;;108.60;45.95;;;0.90;99.90;;;;;;4987269;28;20096;-76
2022/12/11 11:23:26;;;;;;;102.10;45.15;;;0.90;99.90;;;;;;4988185;28;20038;-76
2022/12/11 11:25:59;;;;;;;109.13;48.78;;;0.90;99.90;;;;;;4988654;28;20104;-75
2022/12/11 11:28:33;;;;;;;110.93;48.50;;;0.90;99.90;;;;;;5002015;28;20526;-75
2022/12/11 11:31:02;;;;;;;108.50;46.47;;;0.90;99.90;;;;;;4999928;28;20049;-75
2022/12/11 11:33:29;;;;;;;108.82;48.38;;;0.90;99.90;;;;;;4990508;28;20056;-75
2022/12/11 11:35:59;;;;;;;110.80;48.85;;;0.90;99.90;;;;;;4986383;28;20049;-75
2022/12/11 11:38:39;;;;;;;104.03;47.47;;;0.90;99.90;;;;;;5008694;28;20108;-77
2022/12/11 11:41:39;;;;;;;92.75;42.55;;;0.90;99.90;;;;;;4988067;28;20072;-75
2022/12/11 11:44:09;;;;;;;93.13;44.47;;;0.90;99.90;;;;;;4973672;28;20050;-76
2022/12/11 11:46:52;;;;;;;99.28;48.22;;;0.90;99.90;;;;;;4992147;28;20411;-76
2022/12/11 11:49:27;;;;;;;100.57;46.47;;;0.90;99.90;;;;;;4991112;28;20683;-76
2022/12/11 11:52:18;;;;;;;113.60;48.03;;;0.90;99.90;;;;;;5005342;28;20057;-77
2022/12/11 11:55:08;;;;;;;107.55;48.60;;;1.00;99.90;;;;;;4987428;28;20054;-77
2022/12/11 11:57:51;;;;;;;100.63;45.88;;;0.90;99.90;;;;;;4989944;28;20104;-76
2022/12/11 12:00:21;;;;;;;98.38;46.08;;;0.90;99.90;;;;;;4988313;28;20284;-76
2022/12/11 12:02:58;;;;;;;51.95;22.98;;;0.90;99.90;;;;;;4990457;28;20041;-75
2022/12/11 12:05:54;;;;;;;90.25;43.83;;;0.90;99.90;;;;;;5007652;28;20085;-76
2022/12/11 12:08:40;;;;;;;106.10;49.63;;;0.90;99.90;;;;;;5007455;28;20049;-75
2022/12/11 12:11:25;;;;;;;41.17;19.33;;;0.90;99.90;;;;;;4989482;28;20053;-75
2022/12/11 12:14:12;;;;;;;115.43;53.38;;;0.90;99.90;;;;;;4955626;28;20058;-75
2022/12/11 12:17:04;;;;;;;112.35;49.20;;;0.90;99.90;;;;;;4991600;28;20053;-75
2022/12/11 12:20:00;;;;;;;103.88;47.90;;;0.90;99.90;;;;;;5005336;28;20058;-75
2022/12/11 12:22:47;;;;;;;98.90;47.03;;;1.00;99.90;;;;;;5005503;28;20493;-75
2022/12/11 12:25:44;;;;;;;95.55;44.88;;;1.00;99.90;;;;;;4998089;28;20042;-76
2022/12/11 12:28:28;;;;;;;98.55;46.85;;;1.00;99.90;;;;;;4987741;28;20049;-76
2022/12/11 12:31:35;;;;;;;102.10;46.30;;;1.00;99.90;;;;;;4989684;28;20073;-76
2022/12/11 12:34:19;;;;;;;94.35;45.45;;;1.00;99.90;;;;;;4988019;28;20125;-74
2022/12/11 12:37:06;;;;;;;62.50;24.45;;;1.00;99.90;;;;;;4988160;28;20061;-76
2022/12/11 12:40:03;;;;;;;98.75;46.70;;;1.00;99.90;;;;;;5004789;28;20050;-76
2022/12/11 12:42:32;;;;;;;93.97;46.55;;;1.00;99.90;;;;;;5001687;28;20049;-76
2022/12/11 12:45:12;;;;;;;40.05;17.35;;;1.00;99.90;;;;;;4999988;28;20080;-76
2022/12/11 12:47:40;;;;;;;92.60;44.03;;;1.00;99.90;;;;;;5009487;28;20050;-75
2022/12/11 12:50:18;;;;;;;40.83;16.35;;;1.00;99.90;;;;;;4986640;28;20042;-73
2022/12/11 12:52:48;;;;;;;90.93;46.13;;;1.00;99.90;;;;;;5005311;28;20169;-75
2022/12/11 12:55:27;;;;;;;101.50;46.28;;;1.10;99.90;;;;;;5004880;28;20034;-75
2022/12/11 12:58:03;;;;;;;96.70;46.53;;;1.00;99.90;;;;;;5007258;28;20060;-75